Hollowayville, Illinois
Current Conditions -  °F | °C
As of 1:15 PM on Saturday 20 Dec 2014 (Local Time) from KVYS Reporting Station
Overcast Overcast  
Wind Chill: 28°   Ceiling: 5000
Heat Index: 33°   Visibility: 7mi
Dew Point: 28°   Wind: 5mph
Humidity: 83%   Direction: 160°SSE
Pressure: 30.24"   Gusts: NA
Location:  41.3609°N, 89.3981°W
Report Text: KVYS 201915Z AUTO 16004KT 7SM BKN050 OVC055 00/M02 A3024 RMK AO2 T00031023
Loading
Personal Weather Stations






























Interactive Weather Map New forecast layout! Learn more

10-Day Weather Forecast

Advertisements
Track Severe Weather on mobile